Time;durP1;ratioP1;P1;durP2;ratioP2;P2;SDS_P1;SDS_P2;PMS_P1;PMS_P2;Temp;Humidity;BMP_temperature;BMP_pressure;BME280_temperature;BME280_humidity;BME280_pressure;Samples;Min_cycle;Max_cycle;Signal;HPM_P1;HPM_P2
2023/02/25 00:01:23;;;;;;;2.45;1.60;;;7.10;82.10;;;;;;4864694;29;20040;-86
2023/02/25 00:03:51;;;;;;;1.95;1.48;;;7.10;82.10;;;;;;4880103;29;20470;-83
2023/02/25 00:06:18;;;;;;;1.95;1.50;;;7.10;82.10;;;;;;4880191;29;20052;-86
2023/02/25 00:08:45;;;;;;;3.63;1.80;;;7.10;82.10;;;;;;4864772;29;20120;-83
2023/02/25 00:11:12;;;;;;;3.38;1.70;;;7.10;82.20;;;;;;4864051;29;20029;-88
2023/02/25 00:13:40;;;;;;;2.00;1.55;;;7.10;82.20;;;;;;4864291;29;20128;-86
2023/02/25 00:16:06;;;;;;;2.80;1.63;;;7.00;82.10;;;;;;4879618;29;20081;-86
2023/02/25 00:18:33;;;;;;;2.03;1.40;;;7.00;82.20;;;;;;4880187;29;20493;-83
2023/02/25 00:21:02;;;;;;;2.95;1.70;;;7.00;82.20;;;;;;4880345;29;20032;-83
2023/02/25 00:23:28;;;;;;;3.03;1.80;;;7.00;82.20;;;;;;4879955;29;20033;-83
2023/02/25 00:26:05;;;;;;;1.70;1.50;;;7.00;82.20;;;;;;4864506;29;20489;-83
2023/02/25 00:28:33;;;;;;;3.50;1.70;;;7.00;82.20;;;;;;4880046;29;20160;-85
2023/02/25 00:30:59;;;;;;;1.95;1.50;;;7.00;82.80;;;;;;4864480;29;20140;-84
2023/02/25 00:33:24;;;;;;;2.90;1.73;;;7.00;82.10;;;;;;4864276;29;20082;-83
2023/02/25 00:35:50;;;;;;;2.80;1.67;;;7.00;82.20;;;;;;4864313;29;20031;-84
2023/02/25 00:38:16;;;;;;;1.70;1.40;;;7.00;82.10;;;;;;4879808;29;20044;-83
2023/02/25 00:40:45;;;;;;;2.33;1.48;;;7.00;82.10;;;;;;4864671;29;20463;-87
2023/02/25 00:43:10;;;;;;;4.15;1.75;;;7.00;82.10;;;;;;4849014;29;20036;-84
2023/02/25 00:45:39;;;;;;;1.75;1.60;;;7.00;82.10;;;;;;4864296;29;20032;-85
2023/02/25 00:48:05;;;;;;;4.78;1.83;;;7.00;82.20;;;;;;4879704;29;20041;-83
2023/02/25 00:50:31;;;;;;;3.58;1.50;;;7.00;82.20;;;;;;4864170;29;20040;-83
2023/02/25 00:52:57;;;;;;;1.85;1.50;;;7.00;82.20;;;;;;4863892;29;20032;-86
2023/02/25 00:55:23;;;;;;;3.58;1.70;;;7.00;82.20;;;;;;4879796;29;20033;-83
2023/02/25 00:57:48;;;;;;;3.45;1.73;;;7.00;82.20;;;;;;4879389;29;20057;-85
2023/02/25 01:00:15;;;;;;;5.15;1.80;;;6.90;82.10;;;;;;4848272;29;20053;-83
2023/02/25 01:02:44;;;;;;;2.33;1.50;;;7.00;82.20;;;;;;4879183;29;20137;-83
2023/02/25 01:05:11;;;;;;;2.65;1.63;;;6.90;82.10;;;;;;4879209;29;20067;-88
2023/02/25 01:07:37;;;;;;;2.10;1.42;;;7.00;82.20;;;;;;4879804;29;20033;-83
2023/02/25 01:10:04;;;;;;;2.47;1.40;;;6.90;82.20;;;;;;4880129;29;20037;-84
2023/02/25 01:12:30;;;;;;;2.67;1.50;;;6.90;82.20;;;;;;4879387;29;20060;-84
2023/02/25 01:14:56;;;;;;;2.10;1.55;;;6.90;82.20;;;;;;4864477;29;20082;-86
2023/02/25 01:17:22;;;;;;;3.10;1.70;;;6.90;82.20;;;;;;4864130;29;20161;-83
2023/02/25 01:19:48;;;;;;;2.83;1.98;;;7.00;82.20;;;;;;4849120;29;20470;-84
2023/02/25 01:22:14;;;;;;;2.55;1.70;;;6.90;82.80;;;;;;4863903;29;20025;-84
2023/02/25 01:24:40;;;;;;;2.65;1.67;;;6.90;82.20;;;;;;4863924;29;20029;-84
2023/02/25 01:27:06;;;;;;;3.72;1.90;;;6.90;82.20;;;;;;4864152;29;20062;-85
2023/02/25 01:29:38;;;;;;;2.33;1.83;;;6.90;82.20;;;;;;4879146;29;20029;-84
2023/02/25 01:32:09;;;;;;;3.28;1.83;;;6.90;82.20;;;;;;4863973;29;20033;-84
2023/02/25 01:34:34;;;;;;;3.10;1.80;;;6.90;82.20;;;;;;4879185;29;20037;-83
2023/02/25 01:37:02;;;;;;;3.67;1.73;;;6.90;82.80;;;;;;4863385;29;20036;-85
2023/02/25 01:39:28;;;;;;;3.45;1.73;;;6.90;82.20;;;;;;4878740;29;20039;-85
2023/02/25 01:41:56;;;;;;;3.47;1.80;;;6.90;82.20;;;;;;4863758;29;20033;-83
2023/02/25 01:44:36;;;;;;;1.67;1.40;;;6.90;82.20;;;;;;4863437;29;20459;-83
2023/02/25 01:47:03;;;;;;;2.13;1.55;;;6.90;82.20;;;;;;4878929;29;20041;-83
2023/02/25 01:49:43;;;;;;;1.95;1.48;;;6.90;82.20;;;;;;4863640;29;20458;-85
2023/02/25 01:52:22;;;;;;;2.97;1.38;;;6.90;82.20;;;;;;4863703;29;20026;-83
2023/02/25 01:54:54;;;;;;;1.67;1.50;;;6.90;82.20;;;;;;4863569;29;20040;-83
2023/02/25 01:57:20;;;;;;;2.92;1.70;;;6.90;82.20;;;;;;4863558;29;20064;-84
2023/02/25 01:59:47;;;;;;;1.65;1.38;;;6.90;82.20;;;;;;4878672;29;20144;-82
2023/02/25 02:02:16;;;;;;;2.55;1.40;;;6.90;82.20;;;;;;4863435;29;20041;-84
2023/02/25 02:04:43;;;;;;;3.40;1.60;;;6.90;82.20;;;;;;4878833;29;20402;-82
2023/02/25 02:07:09;;;;;;;2.63;1.60;;;6.90;82.20;;;;;;4866708;29;20068;-83
2023/02/25 02:09:36;;;;;;;1.48;1.27;;;6.80;82.20;;;;;;4867078;29;20032;-84
2023/02/25 02:12:04;;;;;;;1.88;1.55;;;6.80;82.20;;;;;;4866789;29;20044;-84
2023/02/25 02:14:39;;;;;;;1.83;1.50;;;6.80;82.20;;;;;;4882781;29;20029;-84
2023/02/25 02:17:30;;;;;;;3.85;1.40;;;6.90;82.20;;;;;;4867042;29;20037;-84
2023/02/25 02:20:08;;;;;;;3.03;1.50;;;6.80;82.20;;;;;;4882903;29;20112;-82
2023/02/25 02:23:03;;;;;;;4.43;2.53;;;6.80;82.10;;;;;;4866754;29;20072;-84
2023/02/25 02:26:01;;;;;;;3.22;1.63;;;6.80;82.20;;;;;;4866638;29;20040;-85
2023/02/25 02:28:31;;;;;;;3.47;1.65;;;6.80;82.10;;;;;;4866670;29;20041;-86
2023/02/25 02:31:29;;;;;;;1.75;1.42;;;6.80;82.10;;;;;;4866503;29;20026;-84
2023/02/25 02:34:19;;;;;;;1.52;1.42;;;6.80;82.20;;;;;;4882179;29;20465;-82
2023/02/25 02:36:44;;;;;;;1.52;1.38;;;6.80;82.20;;;;;;4881980;29;20099;-83
2023/02/25 02:39:14;;;;;;;2.25;1.30;;;6.80;82.20;;;;;;4866295;29;20025;-84
2023/02/25 02:41:56;;;;;;;2.03;1.50;;;6.80;82.20;;;;;;4881710;29;20056;-83
2023/02/25 02:44:27;;;;;;;2.03;1.50;;;6.80;82.20;;;;;;4866944;29;20088;-84
2023/02/25 02:47:05;;;;;;;2.83;1.52;;;6.80;82.20;;;;;;4866782;29;20367;-85
2023/02/25 02:49:43;;;;;;;2.13;1.20;;;6.80;82.20;;;;;;4881529;29;20166;-83
2023/02/25 02:52:38;;;;;;;3.55;1.65;;;6.80;82.80;;;;;;4881774;29;20513;-83
2023/02/25 02:55:11;;;;;;;2.13;1.33;;;6.80;82.20;;;;;;4865768;29;20482;-83
2023/02/25 02:57:40;;;;;;;2.03;1.40;;;6.80;82.20;;;;;;4881404;29;20037;-82
2023/02/25 03:00:16;;;;;;;3.08;1.98;;;6.80;82.20;;;;;;4865620;29;20077;-83
2023/02/25 03:02:50;;;;;;;2.53;1.30;;;6.80;82.20;;;;;;4851821;29;20354;-85
2023/02/25 03:05:20;;;;;;;3.72;1.50;;;6.80;82.20;;;;;;4852079;29;20047;-83
2023/02/25 03:07:55;;;;;;;2.80;1.67;;;6.80;82.20;;;;;;4865667;29;20124;-83
2023/02/25 03:10:22;;;;;;;3.85;1.70;;;6.80;82.20;;;;;;4865887;29;20033;-84
2023/02/25 03:12:48;;;;;;;2.25;1.45;;;6.80;82.20;;;;;;4850443;29;20041;-86
2023/02/25 03:15:14;;;;;;;3.38;1.63;;;6.70;82.10;;;;;;4850475;29;20089;-83
2023/02/25 03:17:50;;;;;;;2.70;1.70;;;6.80;82.20;;;;;;4865174;29;20032;-84
2023/02/25 03:20:28;;;;;;;2.10;1.40;;;6.80;82.20;;;;;;4882111;29;20107;-83
2023/02/25 03:22:57;;;;;;;3.58;1.50;;;6.80;82.20;;;;;;4865560;29;20029;-84
2023/02/25 03:25:34;;;;;;;3.17;1.58;;;6.80;82.20;;;;;;4865439;29;20111;-83
2023/02/25 03:28:30;;;;;;;2.10;1.60;;;6.80;82.20;;;;;;4865586;29;20052;-83
2023/02/25 03:31:07;;;;;;;1.92;1.38;;;6.80;82.20;;;;;;4881264;29;20522;-85
2023/02/25 03:33:37;;;;;;;2.05;1.60;;;6.80;82.10;;;;;;4865712;29;20036;-85
2023/02/25 03:36:11;;;;;;;4.32;1.83;;;6.80;82.10;;;;;;4865341;29;20128;-83
2023/02/25 03:38:43;;;;;;;3.45;1.55;;;6.80;82.20;;;;;;4881215;29;20116;-84
2023/02/25 03:41:11;;;;;;;2.45;1.40;;;6.80;82.10;;;;;;4880803;29;20040;-85
2023/02/25 03:43:43;;;;;;;2.88;1.40;;;6.80;82.10;;;;;;4865448;29;20534;-84
2023/02/25 03:46:09;;;;;;;2.25;1.30;;;6.80;82.20;;;;;;4865328;29;20076;-83
2023/02/25 03:48:36;;;;;;;3.22;1.52;;;6.80;82.10;;;;;;4880873;29;20029;-82
2023/02/25 03:51:06;;;;;;;2.65;1.42;;;6.80;82.20;;;;;;4865770;29;20037;-83
2023/02/25 03:53:34;;;;;;;2.00;1.63;;;6.80;82.20;;;;;;4864954;29;20045;-85
2023/02/25 03:56:10;;;;;;;1.88;1.35;;;6.80;82.20;;;;;;4880678;29;20109;-84
2023/02/25 03:58:40;;;;;;;1.85;1.40;;;6.80;82.20;;;;;;4864907;29;20040;-84
2023/02/25 04:01:26;;;;;;;2.25;1.40;;;6.80;82.20;;;;;;4880537;29;20372;-87
2023/02/25 04:03:52;;;;;;;3.67;1.67;;;6.80;82.20;;;;;;4863136;29;20033;-84
2023/02/25 04:06:22;;;;;;;2.85;1.48;;;6.80;82.10;;;;;;4849500;29;20048;-84
2023/02/25 04:08:48;;;;;;;3.72;1.90;;;6.80;82.20;;;;;;4880043;29;20508;-85
2023/02/25 04:11:15;;;;;;;2.80;1.50;;;6.80;82.20;;;;;;4849673;29;20124;-84
2023/02/25 04:13:42;;;;;;;3.63;1.50;;;6.80;82.20;;;;;;4880172;29;20029;-83
2023/02/25 04:16:08;;;;;;;4.05;1.75;;;6.80;82.20;;;;;;4865181;29;20033;-84
2023/02/25 04:18:34;;;;;;;2.08;1.40;;;6.80;82.20;;;;;;4880591;29;20177;-84
2023/02/25 04:21:05;;;;;;;2.72;1.55;;;6.80;82.10;;;;;;4849544;29;20041;-84
2023/02/25 04:23:31;;;;;;;3.28;1.73;;;6.80;82.20;;;;;;4880002;29;20041;-84
2023/02/25 04:25:56;;;;;;;3.28;1.67;;;6.80;82.20;;;;;;4864379;29;20068;-83
2023/02/25 04:28:22;;;;;;;2.40;1.60;;;6.80;82.20;;;;;;4848702;29;20029;-87
2023/02/25 04:30:48;;;;;;;3.28;1.70;;;6.80;82.20;;;;;;4864166;29;20029;-85
2023/02/25 04:33:14;;;;;;;2.70;1.90;;;6.80;82.10;;;;;;4879528;29;20421;-84
2023/02/25 04:35:39;;;;;;;3.78;1.70;;;6.80;82.10;;;;;;4864230;29;20029;-84
2023/02/25 04:38:06;;;;;;;3.38;1.80;;;6.80;82.10;;;;;;4864693;29;20463;-83
2023/02/25 04:40:31;;;;;;;4.60;1.98;;;6.80;82.10;;;;;;4864164;29;20032;-88
2023/02/25 04:42:57;;;;;;;3.00;1.60;;;6.80;82.10;;;;;;4848505;29;20135;-83
2023/02/25 04:45:24;;;;;;;2.28;1.65;;;6.80;82.10;;;;;;4879421;29;20041;-84
2023/02/25 04:47:52;;;;;;;2.75;1.75;;;6.80;82.10;;;;;;4879269;29;20041;-86
2023/02/25 04:50:19;;;;;;;3.30;1.85;;;6.80;82.10;;;;;;4879450;29;20033;-84
2023/02/25 04:52:45;;;;;;;2.22;1.55;;;6.80;82.20;;;;;;4864825;29;20032;-84
2023/02/25 04:55:11;;;;;;;4.03;1.88;;;6.80;82.50;;;;;;4849312;29;20040;-84
2023/02/25 04:57:41;;;;;;;3.25;1.80;;;6.80;82.20;;;;;;4879327;29;20093;-82
2023/02/25 05:00:22;;;;;;;4.93;2.15;;;6.80;82.10;;;;;;4879272;29;20049;-84
2023/02/25 05:02:49;;;;;;;2.38;1.35;;;6.80;82.10;;;;;;4863960;29;20037;-84
2023/02/25 05:05:16;;;;;;;2.03;1.60;;;6.80;82.10;;;;;;4863950;29;20033;-84
2023/02/25 05:07:42;;;;;;;3.22;1.70;;;6.80;82.10;;;;;;4880730;29;20040;-85
2023/02/25 05:10:09;;;;;;;3.15;1.65;;;6.80;82.10;;;;;;4848955;29;20043;-84
2023/02/25 05:12:36;;;;;;;2.67;1.70;;;6.80;82.10;;;;;;4864592;29;20036;-84
2023/02/25 05:15:04;;;;;;;2.47;1.40;;;6.80;82.10;;;;;;4848428;29;20045;-83
2023/02/25 05:17:31;;;;;;;1.70;1.25;;;6.80;82.20;;;;;;4863642;29;20033;-84
2023/02/25 05:19:57;;;;;;;3.35;1.85;;;6.80;82.20;;;;;;4879149;29;20045;-82
2023/02/25 05:22:24;;;;;;;3.80;1.77;;;6.70;82.10;;;;;;4863309;29;20160;-84
2023/02/25 05:24:50;;;;;;;2.90;1.75;;;6.70;82.10;;;;;;4879551;29;20096;-85
2023/02/25 05:27:15;;;;;;;3.58;1.60;;;6.70;82.10;;;;;;4879070;29;20502;-84
2023/02/25 05:29:41;;;;;;;3.63;1.50;;;6.70;82.20;;;;;;4879175;29;20108;-85
2023/02/25 05:32:07;;;;;;;2.88;1.50;;;6.70;82.20;;;;;;4878805;29;20035;-84
2023/02/25 05:34:34;;;;;;;2.25;1.55;;;6.70;82.20;;;;;;4848040;29;20049;-87
2023/02/25 05:37:00;;;;;;;3.05;1.50;;;6.70;82.20;;;;;;4879357;29;20116;-85
2023/02/25 05:39:26;;;;;;;4.43;1.90;;;6.70;82.20;;;;;;4880171;29;20029;-86
2023/02/25 05:41:53;;;;;;;2.28;1.83;;;6.70;82.20;;;;;;4883623;29;20551;-84
2023/02/25 05:44:19;;;;;;;2.67;1.60;;;6.70;82.20;;;;;;4882533;29;20032;-83
2023/02/25 05:46:45;;;;;;;3.05;1.50;;;6.70;82.20;;;;;;4882411;29;20534;-84
2023/02/25 05:49:11;;;;;;;2.78;1.65;;;6.70;82.20;;;;;;4867783;29;20037;-83
2023/02/25 05:51:37;;;;;;;3.60;1.52;;;6.70;82.20;;;;;;4882663;29;20040;-85
2023/02/25 05:54:03;;;;;;;3.13;1.50;;;6.70;82.20;;;;;;4866803;29;20040;-88
2023/02/25 05:56:30;;;;;;;2.17;1.95;;;6.70;82.20;;;;;;4882358;29;20053;-84
2023/02/25 05:58:56;;;;;;;4.70;1.88;;;6.70;82.20;;;;;;4851344;29;20439;-87
2023/02/25 06:01:26;;;;;;;4.07;1.65;;;6.70;82.20;;;;;;4867213;29;20036;-84
2023/02/25 06:03:57;;;;;;;3.28;1.50;;;6.70;82.20;;;;;;4882420;29;20124;-83
2023/02/25 06:06:25;;;;;;;3.28;1.50;;;6.60;82.20;;;;;;4866514;29;20471;-85
2023/02/25 06:08:52;;;;;;;2.45;1.60;;;6.70;82.20;;;;;;4851860;29;20058;-84
2023/02/25 06:11:27;;;;;;;3.55;1.80;;;6.70;82.10;;;;;;4866758;29;20089;-84
2023/02/25 06:13:54;;;;;;;2.50;1.35;;;6.70;82.20;;;;;;4866369;29;20089;-84
2023/02/25 06:16:21;;;;;;;2.88;1.60;;;6.60;82.10;;;;;;4866917;29;20032;-84
2023/02/25 06:18:47;;;;;;;3.58;1.65;;;6.70;82.10;;;;;;4866737;29;20064;-83
2023/02/25 06:21:14;;;;;;;1.52;1.40;;;6.70;82.20;;;;;;4866367;29;20044;-86
2023/02/25 06:23:41;;;;;;;2.58;1.80;;;6.70;82.20;;;;;;4866339;29;20029;-83
2023/02/25 06:26:10;;;;;;;2.83;1.50;;;6.70;82.20;;;;;;4882928;29;20028;-83
2023/02/25 06:28:37;;;;;;;4.45;1.90;;;6.60;82.10;;;;;;4882199;29;20037;-83
2023/02/25 06:31:09;;;;;;;2.60;1.48;;;6.60;82.10;;;;;;4881910;29;20025;-84
2023/02/25 06:33:36;;;;;;;2.38;1.50;;;6.70;82.20;;;;;;4867040;29;20029;-83
2023/02/25 06:36:03;;;;;;;2.20;1.58;;;6.60;82.10;;;;;;4866302;29;20123;-84
2023/02/25 06:38:31;;;;;;;2.38;1.40;;;6.60;82.10;;;;;;4866278;29;20066;-83
2023/02/25 06:40:56;;;;;;;3.47;1.60;;;6.60;82.10;;;;;;4881589;29;20025;-88
2023/02/25 06:43:22;;;;;;;4.28;1.67;;;6.70;82.20;;;;;;4881419;29;20039;-83
2023/02/25 06:45:48;;;;;;;3.53;1.63;;;6.60;82.10;;;;;;4865994;29;20374;-82
2023/02/25 06:48:14;;;;;;;3.22;1.50;;;6.60;82.10;;;;;;4866676;29;20089;-83
2023/02/25 06:50:40;;;;;;;3.70;1.42;;;6.60;82.10;;;;;;4865395;29;20073;-84
2023/02/25 06:53:07;;;;;;;1.50;1.30;;;6.60;82.10;;;;;;4865925;29;20029;-84
2023/02/25 06:55:33;;;;;;;2.75;1.73;;;6.70;82.10;;;;;;4865509;29;20029;-82
2023/02/25 06:57:58;;;;;;;2.70;1.50;;;6.60;82.10;;;;;;4865918;29;20037;-82
2023/02/25 07:00:24;;;;;;;2.25;1.58;;;6.60;82.10;;;;;;4880719;29;20136;-83
2023/02/25 07:02:50;;;;;;;3.22;1.70;;;6.60;82.10;;;;;;4865785;29;20064;-83
2023/02/25 07:05:16;;;;;;;2.72;1.50;;;6.60;82.20;;;;;;4881154;29;20407;-82
2023/02/25 07:07:42;;;;;;;2.05;1.40;;;6.60;82.10;;;;;;4849782;29;20184;-84
2023/02/25 07:10:10;;;;;;;2.30;1.33;;;6.60;82.10;;;;;;4865169;29;20129;-83
2023/02/25 07:12:35;;;;;;;2.80;1.45;;;6.60;82.10;;;;;;4881229;29;20021;-85
2023/02/25 07:15:01;;;;;;;3.58;1.50;;;6.70;82.10;;;;;;4865444;29;20177;-83
2023/02/25 07:17:27;;;;;;;2.20;1.60;;;6.60;82.10;;;;;;4850087;29;20037;-84
2023/02/25 07:19:53;;;;;;;2.60;1.50;;;6.60;82.10;;;;;;4881855;29;20039;-83
2023/02/25 07:22:19;;;;;;;3.78;1.60;;;6.70;82.10;;;;;;4865413;29;20033;-83
2023/02/25 07:24:45;;;;;;;2.40;1.35;;;6.60;82.10;;;;;;4850053;29;20063;-83
2023/02/25 07:27:14;;;;;;;2.50;1.58;;;6.60;82.10;;;;;;4850148;29;20174;-84
2023/02/25 07:29:40;;;;;;;2.58;1.70;;;6.60;82.10;;;;;;4881121;29;20063;-85
2023/02/25 07:32:07;;;;;;;2.30;1.60;;;6.60;82.10;;;;;;4880851;29;20474;-83
2023/02/25 07:34:34;;;;;;;3.47;1.60;;;6.60;82.10;;;;;;4880638;29;20029;-83
2023/02/25 07:37:00;;;;;;;2.58;1.55;;;6.60;82.10;;;;;;4880475;29;20044;-85
2023/02/25 07:39:26;;;;;;;3.00;1.80;;;6.60;82.10;;;;;;4864762;29;20115;-82
2023/02/25 07:41:51;;;;;;;2.50;1.60;;;6.60;82.10;;;;;;4881121;29;20367;-87
2023/02/25 07:44:19;;;;;;;1.80;1.50;;;6.60;82.10;;;;;;4865878;29;20041;-84
2023/02/25 07:46:44;;;;;;;2.67;1.55;;;6.70;82.10;;;;;;4865640;29;20112;-87
2023/02/25 07:49:10;;;;;;;3.28;1.55;;;6.60;82.10;;;;;;4880974;29;20033;-84
2023/02/25 07:51:39;;;;;;;3.38;1.80;;;6.70;82.10;;;;;;4850283;29;20040;-85
2023/02/25 07:54:08;;;;;;;1.27;1.23;;;6.70;82.10;;;;;;4850437;29;20036;-86
2023/02/25 07:56:34;;;;;;;2.03;1.40;;;6.70;82.10;;;;;;4880394;29;20044;-84
2023/02/25 07:59:00;;;;;;;6.13;1.80;;;6.70;82.10;;;;;;4849766;29;20029;-84
2023/02/25 08:01:27;;;;;;;3.47;1.70;;;6.70;82.10;;;;;;4880686;29;20141;-83
2023/02/25 08:04:05;;;;;;;2.85;1.60;;;6.70;82.10;;;;;;4863867;29;20037;-83
2023/02/25 08:06:36;;;;;;;2.53;1.60;;;6.70;82.10;;;;;;4880899;29;20052;-83
2023/02/25 08:09:06;;;;;;;1.65;1.50;;;6.70;82.10;;;;;;4880221;29;20040;-83
2023/02/25 08:11:32;;;;;;;2.08;1.40;;;6.70;82.10;;;;;;4864914;29;20029;-83
2023/02/25 08:14:01;;;;;;;1.95;1.48;;;6.70;82.10;;;;;;4849694;29;20039;-83
2023/02/25 08:16:27;;;;;;;2.63;1.80;;;6.70;82.20;;;;;;4864797;29;20474;-83
2023/02/25 08:18:53;;;;;;;3.47;1.48;;;6.70;82.10;;;;;;4848672;29;20488;-84
2023/02/25 08:21:21;;;;;;;1.40;1.30;;;6.70;82.20;;;;;;4880447;29;20041;-82
2023/02/25 08:23:48;;;;;;;2.60;1.65;;;6.70;82.10;;;;;;4880463;29;20032;-92
2023/02/25 08:26:16;;;;;;;3.97;1.60;;;6.80;82.20;;;;;;4863892;29;20025;-84
2023/02/25 08:28:43;;;;;;;2.33;1.58;;;6.80;82.20;;;;;;4863857;29;20037;-83
2023/02/25 08:31:12;;;;;;;2.30;1.65;;;6.80;82.20;;;;;;4880396;29;20078;-82
2023/02/25 08:33:48;;;;;;;3.03;1.83;;;6.80;82.20;;;;;;4863543;29;20120;-81
2023/02/25 08:36:30;;;;;;;4.07;1.70;;;6.80;82.10;;;;;;4863688;29;20070;-83
2023/02/25 08:38:58;;;;;;;2.47;1.52;;;6.80;82.80;;;;;;4879203;29;20025;-82
2023/02/25 08:41:25;;;;;;;3.88;1.90;;;6.80;82.10;;;;;;4878987;29;20056;-85
2023/02/25 08:43:53;;;;;;;4.05;1.70;;;6.90;82.20;;;;;;4879100;29;20445;-83
2023/02/25 08:46:24;;;;;;;3.05;1.45;;;6.90;82.20;;;;;;4879085;29;20438;-82
2023/02/25 08:48:51;;;;;;;2.67;1.65;;;6.90;82.20;;;;;;4863147;29;20526;-84
2023/02/25 08:51:18;;;;;;;2.25;1.52;;;6.90;82.20;;;;;;4878922;29;20027;-84
2023/02/25 08:53:44;;;;;;;4.07;1.90;;;6.90;82.20;;;;;;4879431;29;20455;-82
2023/02/25 08:56:13;;;;;;;1.52;1.27;;;6.90;82.20;;;;;;4863122;29;20139;-80
2023/02/25 08:58:40;;;;;;;4.50;1.60;;;6.90;82.20;;;;;;4863129;29;20039;-86
2023/02/25 09:01:12;;;;;;;1.88;1.50;;;7.00;82.30;;;;;;4878356;29;20104;-80
2023/02/25 09:03:52;;;;;;;1.75;1.40;;;7.00;82.30;;;;;;4878173;29;20037;-81
2023/02/25 09:06:23;;;;;;;3.53;1.60;;;7.00;82.30;;;;;;4863413;29;20060;-81
2023/02/25 09:08:50;;;;;;;2.40;1.70;;;7.00;82.30;;;;;;4863510;29;20167;-81
2023/02/25 09:11:18;;;;;;;2.05;1.52;;;7.00;82.30;;;;;;4863829;29;20433;-81
2023/02/25 09:13:44;;;;;;;1.70;1.55;;;7.00;82.20;;;;;;4847662;29;20041;-80
2023/02/25 09:16:10;;;;;;;1.90;1.48;;;7.00;82.20;;;;;;4863141;29;20036;-81
2023/02/25 09:18:36;;;;;;;1.58;1.35;;;7.00;82.20;;;;;;4878692;29;20386;-83
2023/02/25 09:21:02;;;;;;;3.15;1.58;;;7.10;82.30;;;;;;4863124;29;20359;-81
2023/02/25 09:23:28;;;;;;;1.58;1.45;;;7.10;82.20;;;;;;4878779;29;20058;-79
2023/02/25 09:25:53;;;;;;;1.48;1.38;;;7.10;82.20;;;;;;4863086;29;20136;-80
2023/02/25 09:28:19;;;;;;;1.67;1.30;;;7.10;82.20;;;;;;4878520;29;20028;-80
2023/02/25 09:30:46;;;;;;;1.75;1.30;;;7.10;82.20;;;;;;4878657;29;20025;-80
2023/02/25 09:33:12;;;;;;;1.63;1.50;;;7.10;82.20;;;;;;4863620;29;20033;-80
2023/02/25 09:35:39;;;;;;;1.67;1.33;;;7.20;82.30;;;;;;4878462;29;20033;-83
2023/02/25 09:38:05;;;;;;;2.55;1.42;;;7.20;82.30;;;;;;4863805;29;20493;-82
2023/02/25 09:40:31;;;;;;;1.45;1.35;;;7.20;82.20;;;;;;4848216;29;20057;-79
2023/02/25 09:42:57;;;;;;;1.80;1.20;;;7.20;82.20;;;;;;4847404;29;20038;-80
2023/02/25 09:45:25;;;;;;;4.18;1.50;;;7.30;82.20;;;;;;4878396;29;20034;-81
2023/02/25 09:48:01;;;;;;;2.55;1.40;;;7.30;82.20;;;;;;4878762;29;20033;-84
2023/02/25 09:50:38;;;;;;;1.40;1.30;;;7.30;82.20;;;;;;4863017;29;20026;-82
2023/02/25 09:53:18;;;;;;;1.30;1.20;;;7.30;82.20;;;;;;4878136;29;20048;-80
2023/02/25 09:55:48;;;;;;;1.90;1.20;;;7.30;82.10;;;;;;4878493;29;20049;-81
2023/02/25 09:58:31;;;;;;;3.13;1.42;;;7.30;82.10;;;;;;4879176;29;20037;-80
2023/02/25 10:01:03;;;;;;;1.52;1.20;;;7.30;82.10;;;;;;4879766;29;20551;-80
2023/02/25 10:03:32;;;;;;;1.65;1.30;;;7.40;82.10;;;;;;4878965;29;20036;-80
2023/02/25 10:06:15;;;;;;;1.27;1.17;;;7.40;82.10;;;;;;4862644;29;20466;-80
2023/02/25 10:09:09;;;;;;;1.10;1.10;;;7.40;82.20;;;;;;4879432;29;20033;-80
2023/02/25 10:11:34;;;;;;;1.77;1.40;;;7.40;82.20;;;;;;4879127;29;20044;-81
2023/02/25 10:14:17;;;;;;;1.95;1.20;;;7.40;82.10;;;;;;4877866;29;20104;-82
2023/02/25 10:16:55;;;;;;;2.40;1.20;;;7.40;82.10;;;;;;4862764;29;20057;-80
2023/02/25 10:19:27;;;;;;;2.13;1.40;;;7.50;82.10;;;;;;4878675;29;20065;-80
2023/02/25 10:22:19;;;;;;;1.10;1.10;;;7.50;82.10;;;;;;4877785;29;20029;-80
2023/02/25 10:24:49;;;;;;;1.80;1.30;;;7.50;82.10;;;;;;4878122;29;20483;-80
2023/02/25 10:27:32;;;;;;;2.15;1.30;;;7.50;82.00;;;;;;4880071;29;20029;-81
2023/02/25 10:30:06;;;;;;;1.67;1.30;;;7.60;82.10;;;;;;4865963;29;20490;-80
2023/02/25 10:32:34;;;;;;;2.15;1.42;;;7.60;82.10;;;;;;4881610;29;20037;-81
2023/02/25 10:35:11;;;;;;;3.03;1.50;;;7.60;82.00;;;;;;4881315;29;20028;-81
2023/02/25 10:37:37;;;;;;;3.88;1.40;;;7.70;82.10;;;;;;4867185;29;20061;-82
2023/02/25 10:40:10;;;;;;;1.52;1.33;;;7.70;82.00;;;;;;4881137;29;20060;-81
2023/02/25 10:42:36;;;;;;;3.28;1.50;;;7.70;82.00;;;;;;4866053;29;20029;-80
2023/02/25 10:45:11;;;;;;;2.55;1.30;;;7.80;82.00;;;;;;4865823;29;20033;-81
2023/02/25 10:47:40;;;;;;;1.40;1.30;;;7.80;82.00;;;;;;4882036;29;20040;-80
2023/02/25 10:50:12;;;;;;;1.40;1.30;;;7.80;81.90;;;;;;4880956;29;20037;-80
2023/02/25 10:53:01;;;;;;;1.98;1.30;;;7.90;81.90;;;;;;4881263;29;20081;-82
2023/02/25 10:55:36;;;;;;;1.42;1.30;;;7.90;81.90;;;;;;4880792;29;20037;-80
2023/02/25 10:58:03;;;;;;;4.28;1.50;;;7.90;81.80;;;;;;4881265;29;20085;-79
2023/02/25 11:00:33;;;;;;;1.40;1.27;;;8.00;81.90;;;;;;4880469;29;20063;-81
2023/02/25 11:03:00;;;;;;;3.10;1.40;;;8.00;81.80;;;;;;4880511;29;20073;-80
2023/02/25 11:05:39;;;;;;;1.40;1.30;;;8.00;81.80;;;;;;4882003;29;20513;-81
2023/02/25 11:08:32;;;;;;;2.45;1.23;;;8.10;81.80;;;;;;4880333;29;20033;-81
2023/02/25 11:11:03;;;;;;;4.18;1.33;;;8.10;81.80;;;;;;4865360;29;20056;-80
2023/02/25 11:13:33;;;;;;;1.25;1.15;;;8.10;81.70;;;;;;4865034;29;20037;-81
2023/02/25 11:16:08;;;;;;;1.70;1.30;;;8.10;81.60;;;;;;4865311;29;20075;-80
2023/02/25 11:18:35;;;;;;;2.45;1.50;;;8.10;81.60;;;;;;4864589;29;20044;-82
2023/02/25 11:21:15;;;;;;;2.22;1.30;;;8.10;81.50;;;;;;4880726;29;20417;-82
2023/02/25 11:23:40;;;;;;;2.65;1.33;;;8.20;81.60;;;;;;4881150;29;20025;-80
2023/02/25 11:26:07;;;;;;;1.75;1.65;;;8.20;82.10;;;;;;4881706;29;20478;-80
2023/02/25 11:28:37;;;;;;;2.40;1.42;;;8.20;81.50;;;;;;4880131;29;20037;-80
2023/02/25 11:31:18;;;;;;;1.55;1.27;;;8.20;81.50;;;;;;4864727;29;20081;-81
2023/02/25 11:33:56;;;;;;;2.83;1.35;;;8.20;81.50;;;;;;4880040;29;20041;-80
2023/02/25 11:36:27;;;;;;;1.30;1.20;;;8.20;81.50;;;;;;4879987;29;20471;-80
2023/02/25 11:39:15;;;;;;;2.45;1.30;;;8.20;81.50;;;;;;4879806;29;20037;-79
2023/02/25 11:41:45;;;;;;;2.53;1.38;;;8.20;81.60;;;;;;4880419;29;20060;-80
2023/02/25 11:44:29;;;;;;;1.42;1.20;;;8.20;81.60;;;;;;4880256;29;20044;-80
2023/02/25 11:47:20;;;;;;;2.70;1.40;;;8.20;81.70;;;;;;4879916;29;20029;-81
2023/02/25 11:50:08;;;;;;;2.03;1.40;;;8.20;81.70;;;;;;4880340;29;20040;-80
2023/02/25 11:52:34;;;;;;;3.75;1.48;;;8.20;81.70;;;;;;4864604;29;20064;-84
2023/02/25 11:55:11;;;;;;;3.63;1.55;;;8.20;81.70;;;;;;4879741;29;20498;-80
2023/02/25 11:58:02;;;;;;;1.30;1.20;;;8.20;81.70;;;;;;4880498;29;20036;-82
2023/02/25 12:00:41;;;;;;;3.13;1.50;;;8.20;82.30;;;;;;4864059;29;20057;-81
2023/02/25 12:03:19;;;;;;;1.85;1.45;;;8.20;81.60;;;;;;4864158;29;20036;-82
2023/02/25 12:05:54;;;;;;;3.60;1.77;;;8.20;81.60;;;;;;4879768;29;20064;-81
2023/02/25 12:08:39;;;;;;;2.63;1.45;;;8.30;81.70;;;;;;4864829;29;20346;-80
2023/02/25 12:11:27;;;;;;;3.03;1.60;;;8.30;81.60;;;;;;4879182;29;20085;-82
2023/02/25 12:14:17;;;;;;;5.13;1.73;;;8.30;81.50;;;;;;4879746;29;20032;-85
2023/02/25 12:17:19;;;;;;;2.20;1.77;;;8.30;81.40;;;;;;4863872;29;20037;-83
2023/02/25 12:19:58;;;;;;;2.22;1.40;;;8.40;81.40;;;;;;4879352;29;20108;-88
2023/02/25 12:23:15;;;;;;;1.70;1.50;;;8.40;81.40;;;;;;4879207;29;20057;-79
2023/02/25 12:26:32;;;;;;;1.52;1.38;;;8.40;81.40;;;;;;4878600;29;20049;-82
2023/02/25 12:29:32;;;;;;;2.65;1.60;;;8.40;81.40;;;;;;4862434;29;20037;-79
2023/02/25 12:32:25;;;;;;;2.30;1.38;;;8.40;81.30;;;;;;4863121;29;20044;-83
2023/02/25 12:35:06;;;;;;;3.80;1.52;;;8.40;81.30;;;;;;4879784;29;20135;-81
2023/02/25 12:38:15;;;;;;;2.70;1.42;;;8.40;81.20;;;;;;4878950;29;20057;-81
2023/02/25 12:41:00;;;;;;;2.28;1.60;;;8.50;81.20;;;;;;4879122;29;20475;-87
2023/02/25 12:43:42;;;;;;;2.03;1.40;;;8.50;81.10;;;;;;4864340;29;20081;-84
2023/02/25 12:46:40;;;;;;;2.22;1.60;;;8.50;81.10;;;;;;4879112;29;20116;-83
2023/02/25 12:49:28;;;;;;;2.88;1.50;;;8.60;81.10;;;;;;4877822;29;20049;-82
2023/02/25 12:52:00;;;;;;;3.45;1.67;;;8.60;81.10;;;;;;4879441;29;20051;-86
2023/02/25 12:54:59;;;;;;;3.38;1.38;;;8.60;81.00;;;;;;4863188;29;20043;-78
2023/02/25 12:57:31;;;;;;;3.35;1.50;;;8.70;81.00;;;;;;4878662;29;20081;-82
2023/02/25 13:00:00;;;;;;;2.38;1.45;;;8.70;80.80;;;;;;4878517;29;20419;-81
2023/02/25 13:02:49;;;;;;;4.97;1.92;;;8.70;80.80;;;;;;4878593;29;20037;-84
2023/02/25 13:05:33;;;;;;;3.28;1.70;;;8.80;80.70;;;;;;4878906;29;20045;-80
2023/02/25 13:08:28;;;;;;;2.22;1.60;;;8.80;80.60;;;;;;4878895;29;20060;-83
2023/02/25 13:11:29;;;;;;;1.58;1.40;;;8.80;80.60;;;;;;4879488;29;20127;-82
2023/02/25 13:13:59;;;;;;;2.15;1.30;;;8.80;80.60;;;;;;4878838;29;20051;-81
2023/02/25 13:16:41;;;;;;;2.25;1.40;;;8.80;80.40;;;;;;4878769;29;20034;-82
2023/02/25 13:19:29;;;;;;;3.33;1.70;;;8.90;80.50;;;;;;4863254;29;20037;-81
2023/02/25 13:22:45;;;;;;;2.47;1.60;;;8.90;80.40;;;;;;4863170;29;20029;-80